createdAt,value
2022-08-22T00:01:04.015Z,64.33
2022-08-22T00:02:47.891Z,49.71
2022-08-22T00:03:07.734Z,64.73
2022-08-22T00:03:09.240Z,48.95
2022-08-22T00:03:51.465Z,63.01
2022-08-22T00:06:25.291Z,63.53
2022-08-22T00:09:06.440Z,64.27
2022-08-22T00:11:48.211Z,64.33
2022-08-22T00:14:35.938Z,64.65
2022-08-22T00:17:17.254Z,64.83
2022-08-22T00:19:52.027Z,65.57
2022-08-22T00:22:27.025Z,66.16
2022-08-22T00:25:31.156Z,66.16
2022-08-22T00:28:03.638Z,66.14
2022-08-22T00:30:35.009Z,66.67
2022-08-22T00:33:17.483Z,65.60
2022-08-22T00:35:48.880Z,65.97
2022-08-22T00:38:23.035Z,66.67
2022-08-22T00:41:01.822Z,67.86
2022-08-22T00:43:55.983Z,66.51
2022-08-22T00:46:22.507Z,67.51
2022-08-22T00:49:01.081Z,67.40
2022-08-22T00:51:52.380Z,67.88
2022-08-22T00:54:37.004Z,67.79
2022-08-22T00:57:28.633Z,67.91
2022-08-22T01:00:05.929Z,68.44
2022-08-22T01:02:52.293Z,67.83
2022-08-22T01:05:35.321Z,67.76
2022-08-22T01:08:19.500Z,67.63
2022-08-22T01:11:11.496Z,67.63
2022-08-22T01:13:59.171Z,67.69
2022-08-22T01:16:34.628Z,67.73
2022-08-22T01:19:21.007Z,68.01
2022-08-22T01:22:37.419Z,67.64
2022-08-22T01:25:26.347Z,67.81
2022-08-22T01:28:13.034Z,67.81
2022-08-22T01:30:50.419Z,67.78
2022-08-22T01:33:23.036Z,67.88
2022-08-22T01:36:11.556Z,67.59
2022-08-22T01:38:52.289Z,67.48
2022-08-22T01:41:28.123Z,66.90
2022-08-22T01:44:13.364Z,66.79
2022-08-22T01:46:42.812Z,67.81
2022-08-22T01:49:30.131Z,67.70
2022-08-22T01:52:09.855Z,68.07
2022-08-22T01:54:57.751Z,68.02
2022-08-22T01:57:25.892Z,68.67
2022-08-22T01:59:58.233Z,68.98
2022-08-22T02:02:41.129Z,69.03
2022-08-22T02:05:07.941Z,69.10
2022-08-22T02:07:48.618Z,69.49
2022-08-22T02:10:54.194Z,69.59
2022-08-22T02:13:26.194Z,69.70
2022-08-22T02:16:03.939Z,69.40
2022-08-22T02:18:44.503Z,69.59
2022-08-22T02:21:21.209Z,69.46
2022-08-22T02:23:53.023Z,69.86
2022-08-22T02:26:30.012Z,69.41
2022-08-22T02:29:15.384Z,69.40
2022-08-22T02:31:53.362Z,69.57
2022-08-22T02:34:38.181Z,69.07
2022-08-22T02:37:27.058Z,69.70
2022-08-22T02:40:06.136Z,69.87
2022-08-22T02:42:43.153Z,70.33
2022-08-22T02:45:25.784Z,70.14
2022-08-22T02:48:05.071Z,69.38
2022-08-22T02:50:43.092Z,69.75
2022-08-22T02:53:28.475Z,70.28
2022-08-22T02:56:06.895Z,70.46
2022-08-22T02:58:49.521Z,71.27
2022-08-22T03:01:24.688Z,70.93
2022-08-22T03:03:52.456Z,71.81
2022-08-22T03:06:42.555Z,72.18
2022-08-22T03:09:15.036Z,71.98
2022-08-22T03:11:49.341Z,71.09
2022-08-22T03:14:20.906Z,70.88
2022-08-22T03:17:06.102Z,70.87
2022-08-22T03:19:51.576Z,70.87
2022-08-22T03:22:44.035Z,70.99
2022-08-22T03:25:17.618Z,70.82
2022-08-22T03:27:50.165Z,70.67
2022-08-22T03:30:23.820Z,70.70
2022-08-22T03:32:55.491Z,71.21
2022-08-22T03:35:31.020Z,71.64
2022-08-22T03:38:29.830Z,71.11
2022-08-22T03:41:15.350Z,71.05
2022-08-22T03:44:24.112Z,71.46
2022-08-22T03:47:25.876Z,71.53
2022-08-22T03:50:11.422Z,72.15
2022-08-22T03:53:18.581Z,72.05
2022-08-22T03:56:10.620Z,72.42
2022-08-22T03:59:14.793Z,73.24
2022-08-22T04:02:42.018Z,72.88
2022-08-22T04:05:28.914Z,71.93
2022-08-22T04:08:26.334Z,72.73
2022-08-22T04:11:08.013Z,73.92
2022-08-22T04:13:38.839Z,74.38
2022-08-22T04:16:19.595Z,74.30
2022-08-22T04:18:53.731Z,74.95
2022-08-22T04:21:27.513Z,74.09
2022-08-22T04:24:12.875Z,74.22
2022-08-22T04:26:47.031Z,73.66
2022-08-22T04:29:19.722Z,73.39
2022-08-22T04:31:53.093Z,73.75
2022-08-22T04:34:29.629Z,73.76
2022-08-22T04:37:24.112Z,73.52
2022-08-22T04:39:55.929Z,73.44
2022-08-22T04:42:36.401Z,73.28
2022-08-22T04:45:08.471Z,73.33
2022-08-22T04:47:54.546Z,73.37
2022-08-22T04:50:45.781Z,73.73
2022-08-22T04:53:12.716Z,73.37
2022-08-22T04:55:57.862Z,72.82
2022-08-22T04:58:43.117Z,72.64
2022-08-22T05:01:23.534Z,73.17
2022-08-22T05:03:55.723Z,72.52
2022-08-22T05:06:24.609Z,71.85
2022-08-22T05:08:53.956Z,71.81
2022-08-22T05:11:22.858Z,72.22
2022-08-22T05:14:00.608Z,71.96
2022-08-22T05:16:37.611Z,71.43
2022-08-22T05:19:12.015Z,71.04
2022-08-22T05:21:42.619Z,69.70
2022-08-22T05:24:12.031Z,69.30
2022-08-22T05:26:44.702Z,68.55
2022-08-22T05:29:12.432Z,68.86
2022-08-22T05:31:43.664Z,68.35
2022-08-22T05:34:14.429Z,67.47
2022-08-22T05:36:44.117Z,68.22
2022-08-22T05:39:18.890Z,67.28
2022-08-22T05:41:46.393Z,66.33
2022-08-22T05:44:28.435Z,65.97
2022-08-22T05:47:03.909Z,68.44
2022-08-22T05:49:48.703Z,68.12
2022-08-22T05:52:22.587Z,68.08
2022-08-22T05:54:56.782Z,67.61
2022-08-22T05:57:36.450Z,68.60
2022-08-22T06:00:09.021Z,67.81
2022-08-22T06:02:56.460Z,67.18
2022-08-22T06:05:28.624Z,67.49
2022-08-22T06:08:07.445Z,65.79
2022-08-22T06:10:48.198Z,67.77
2022-08-22T06:13:41.347Z,66.92
2022-08-22T06:16:17.840Z,65.26
2022-08-22T06:18:45.863Z,66.37
2022-08-22T06:21:19.107Z,65.88
2022-08-22T06:23:49.859Z,65.26
2022-08-22T06:26:21.058Z,64.47
2022-08-22T06:28:54.801Z,63.98
2022-08-22T06:31:27.489Z,63.10
2022-08-22T06:34:00.134Z,63.37
2022-08-22T06:36:33.752Z,62.57
2022-08-22T06:39:03.328Z,63.11
2022-08-22T06:41:32.675Z,61.86
2022-08-22T06:44:00.599Z,63.05
2022-08-22T06:46:29.121Z,61.95
2022-08-22T06:48:58.378Z,61.28
2022-08-22T06:51:28.253Z,60.96
2022-08-22T06:53:58.766Z,60.16
2022-08-22T06:56:30.165Z,61.01
2022-08-22T06:59:00.409Z,60.52
2022-08-22T07:01:43.506Z,59.22
2022-08-22T07:04:10.898Z,59.00
2022-08-22T07:06:43.858Z,60.82
2022-08-22T07:09:28.571Z,58.09
2022-08-22T07:11:57.775Z,60.03
2022-08-22T07:14:41.057Z,59.87
2022-08-22T07:17:09.426Z,59.60
2022-08-22T07:19:46.891Z,60.95
2022-08-22T07:22:16.038Z,59.68
2022-08-22T07:24:50.044Z,59.99
2022-08-22T07:27:37.404Z,58.54
2022-08-22T07:30:13.092Z,59.50
2022-08-22T07:32:49.217Z,59.07
2022-08-22T07:35:26.607Z,56.50
2022-08-22T07:38:30.736Z,54.86
2022-08-22T07:41:16.817Z,56.49
2022-08-22T07:43:48.219Z,57.17
2022-08-22T07:46:18.189Z,56.27
2022-08-22T07:49:08.678Z,54.78
2022-08-22T07:51:45.485Z,55.75
2022-08-22T07:54:15.672Z,54.82
2022-08-22T07:56:46.422Z,54.98
2022-08-22T07:59:17.150Z,52.85
2022-08-22T08:01:45.856Z,51.96
2022-08-22T08:04:15.617Z,52.88
2022-08-22T08:06:42.390Z,52.51
2022-08-22T08:09:14.955Z,52.42
2022-08-22T08:11:43.535Z,51.96
2022-08-22T08:14:13.695Z,51.38
2022-08-22T08:16:49.584Z,50.34
2022-08-22T08:19:17.045Z,51.39
2022-08-22T08:21:54.530Z,51.03
2022-08-22T08:24:25.551Z,50.35
2022-08-22T08:27:15.560Z,49.50
2022-08-22T08:29:48.123Z,47.93
2022-08-22T08:32:14.833Z,48.91
2022-08-22T08:34:43.164Z,48.95
2022-08-22T08:37:22.451Z,48.36
2022-08-22T08:39:55.938Z,48.03
2022-08-22T08:43:10.633Z,47.71
2022-08-22T08:45:47.557Z,47.25
2022-08-22T08:48:45.089Z,47.43
2022-08-22T08:51:23.701Z,45.88
2022-08-22T08:54:14.828Z,46.66
2022-08-22T08:56:54.410Z,46.44
2022-08-22T08:59:35.469Z,46.05
2022-08-22T09:02:25.008Z,46.36
2022-08-22T09:05:14.758Z,45.99
2022-08-22T09:08:23.180Z,46.21
2022-08-22T09:10:53.229Z,45.52
2022-08-22T09:13:41.667Z,44.28
2022-08-22T09:16:20.796Z,43.32
2022-08-22T09:18:59.356Z,45.51
2022-08-22T09:22:14.445Z,43.86
2022-08-22T09:25:12.741Z,44.00
2022-08-22T09:27:59.622Z,44.72
2022-08-22T09:30:54.403Z,44.90
2022-08-22T09:33:22.924Z,40.97
2022-08-22T09:35:51.143Z,42.32
2022-08-22T09:38:48.307Z,43.56
2022-08-22T09:41:38.356Z,42.11
2022-08-22T09:44:12.714Z,41.50
2022-08-22T09:47:09.674Z,42.88
2022-08-22T09:49:53.233Z,41.41
2022-08-22T09:52:33.765Z,42.51
2022-08-22T09:55:11.752Z,42.56
2022-08-22T09:58:00.228Z,42.79
2022-08-22T10:00:35.600Z,43.01
2022-08-22T10:03:07.466Z,41.32
2022-08-22T10:05:43.981Z,39.95
2022-08-22T10:08:37.135Z,43.51
2022-08-22T10:11:21.286Z,41.21
2022-08-22T10:13:57.799Z,40.60
2022-08-22T10:16:46.379Z,41.69
2022-08-22T10:19:23.854Z,39.74
2022-08-22T10:22:23.710Z,41.83
2022-08-22T10:25:34.222Z,41.16
2022-08-22T10:28:16.749Z,34.75
2022-08-22T10:30:43.269Z,38.86
2022-08-22T10:33:16.291Z,40.26
2022-08-22T10:35:45.918Z,40.27
2022-08-22T10:38:25.277Z,37.65
2022-08-22T10:40:59.143Z,37.52
2022-08-22T10:43:31.498Z,38.97
2022-08-22T10:46:12.703Z,38.86
2022-08-22T10:48:47.984Z,36.79
2022-08-22T10:51:23.400Z,37.60
2022-08-22T10:53:58.855Z,39.22
2022-08-22T10:56:30.267Z,38.32
2022-08-22T10:59:22.896Z,38.95
2022-08-22T11:01:58.898Z,38.86
2022-08-22T11:05:03.091Z,39.83
2022-08-22T11:07:48.794Z,34.55
2022-08-22T11:10:35.480Z,35.23
2022-08-22T11:13:05.561Z,35.34
2022-08-22T11:15:51.159Z,39.03
2022-08-22T11:19:14.630Z,39.83
2022-08-22T11:22:03.676Z,40.76
2022-08-22T11:24:53.965Z,36.84
2022-08-22T11:28:16.409Z,35.68
2022-08-22T11:31:08.505Z,35.62
2022-08-22T11:33:46.515Z,34.01
2022-08-22T11:36:26.751Z,34.07
2022-08-22T11:39:18.006Z,34.31
2022-08-22T11:41:52.293Z,34.21
2022-08-22T11:44:32.230Z,32.59
2022-08-22T11:47:03.058Z,31.98
2022-08-22T11:49:39.613Z,32.83
2022-08-22T11:52:18.297Z,32.88
2022-08-22T11:55:22.472Z,31.71
2022-08-22T11:57:51.667Z,31.45
2022-08-22T12:00:23.114Z,31.29
2022-08-22T12:03:04.992Z,31.21
2022-08-22T12:05:45.023Z,30.99
2022-08-22T12:08:21.143Z,33.91
2022-08-22T12:11:24.043Z,33.31
2022-08-22T12:14:06.243Z,32.32
2022-08-22T12:17:07.975Z,32.43
2022-08-22T12:19:42.098Z,32.06
2022-08-22T12:22:51.240Z,32.52
2022-08-22T12:25:44.770Z,33.36
2022-08-22T12:28:21.767Z,33.31
2022-08-22T12:31:12.114Z,33.75
2022-08-22T12:33:55.566Z,33.75
2022-08-22T12:36:28.051Z,35.71
2022-08-22T12:39:25.088Z,35.15
2022-08-22T12:42:09.363Z,34.00
2022-08-22T12:45:10.799Z,37.58
2022-08-22T12:47:55.287Z,35.51
2022-08-22T12:50:43.603Z,35.73
2022-08-22T12:53:39.930Z,37.24
2022-08-22T12:56:32.669Z,37.88
2022-08-22T12:59:22.266Z,37.02
2022-08-22T13:01:53.201Z,36.68
2022-08-22T13:04:33.545Z,35.20
2022-08-22T13:07:23.534Z,34.60
2022-08-22T13:09:53.260Z,34.96
2022-08-22T13:12:22.705Z,34.00
2022-08-22T13:14:55.126Z,33.72
2022-08-22T13:17:24.630Z,33.83
2022-08-22T13:19:57.212Z,32.98
2022-08-22T13:22:27.512Z,32.34
2022-08-22T13:25:05.284Z,33.12
2022-08-22T13:27:50.547Z,33.22
2022-08-22T13:30:24.543Z,33.44
2022-08-22T13:32:53.430Z,37.41
2022-08-22T13:35:33.270Z,34.91
2022-08-22T13:38:12.273Z,35.64
2022-08-22T13:40:40.158Z,37.10
2022-08-22T13:43:19.016Z,35.96
2022-08-22T13:45:55.907Z,34.18
2022-08-22T13:48:28.551Z,33.35
2022-08-22T13:51:10.584Z,35.95
2022-08-22T13:53:49.361Z,35.95
2022-08-22T13:56:34.792Z,36.88
2022-08-22T13:59:04.381Z,32.85
2022-08-22T14:01:39.112Z,32.93
2022-08-22T14:04:32.292Z,32.30
2022-08-22T14:07:03.703Z,33.77
2022-08-22T14:09:49.121Z,31.55
2022-08-22T14:12:33.295Z,33.26
2022-08-22T14:15:22.198Z,33.04
2022-08-22T14:17:51.978Z,34.89
2022-08-22T14:20:33.437Z,33.39
2022-08-22T14:23:10.236Z,32.95
2022-08-22T14:25:39.324Z,33.44
2022-08-22T14:28:09.275Z,31.40
2022-08-22T14:30:41.937Z,31.14
2022-08-22T14:33:23.317Z,32.48
2022-08-22T14:36:02.172Z,34.88
2022-08-22T14:38:31.757Z,31.95
2022-08-22T14:41:04.131Z,32.76
2022-08-22T14:43:31.929Z,34.39
2022-08-22T14:46:10.550Z,33.70
2022-08-22T14:49:13.834Z,36.04
2022-08-22T14:51:50.859Z,36.20
2022-08-22T14:54:21.501Z,37.24
2022-08-22T14:56:50.332Z,36.10
2022-08-22T14:59:50.174Z,34.48
2022-08-22T15:02:26.883Z,35.44
2022-08-22T15:04:54.976Z,35.42
2022-08-22T15:07:53.288Z,34.08
2022-08-22T15:10:31.665Z,38.39
2022-08-22T15:13:03.908Z,37.56
2022-08-22T15:15:52.467Z,37.43
2022-08-22T15:18:27.456Z,36.08
2022-08-22T15:21:01.642Z,38.34
2022-08-22T15:23:28.725Z,33.98
2022-08-22T15:26:00.963Z,34.91
2022-08-22T15:28:28.051Z,34.83
2022-08-22T15:31:16.540Z,33.79
2022-08-22T15:33:45.978Z,32.77
2022-08-22T15:36:24.788Z,34.40
2022-08-22T15:38:56.304Z,36.35
2022-08-22T15:41:36.589Z,36.35
2022-08-22T15:44:06.616Z,35.42
2022-08-22T15:46:38.855Z,32.59
2022-08-22T15:49:10.618Z,33.53
2022-08-22T15:51:52.898Z,35.12
2022-08-22T15:54:25.584Z,34.52
2022-08-22T15:56:52.717Z,34.71
2022-08-22T15:59:28.370Z,33.25
2022-08-22T16:02:00.546Z,31.54
2022-08-22T16:04:51.619Z,30.95
2022-08-22T16:07:35.756Z,31.45
2022-08-22T16:10:25.266Z,32.61
2022-08-22T16:13:34.785Z,34.79
2022-08-22T16:16:07.501Z,35.38
2022-08-22T16:18:33.966Z,37.11
2022-08-22T16:21:05.109Z,35.67
2022-08-22T16:23:56.275Z,33.75
2022-08-22T16:26:31.691Z,34.76
2022-08-22T16:29:24.941Z,34.86
2022-08-22T16:31:53.890Z,32.74
2022-08-22T16:34:24.864Z,33.97
2022-08-22T16:37:14.951Z,32.08
2022-08-22T16:39:58.498Z,31.44
2022-08-22T16:42:28.548Z,32.01
2022-08-22T16:45:05.480Z,30.60
2022-08-22T16:47:40.715Z,34.06
2022-08-22T16:50:19.501Z,35.41
2022-08-22T16:53:03.563Z,33.42
2022-08-22T16:55:30.041Z,32.98
2022-08-22T16:58:07.270Z,34.85
2022-08-22T17:00:36.965Z,34.39
2022-08-22T17:03:06.866Z,34.15
2022-08-22T17:05:54.971Z,34.25
2022-08-22T17:08:33.386Z,35.77
2022-08-22T17:11:11.801Z,36.75
2022-08-22T17:13:51.616Z,37.71
2022-08-22T17:17:07.923Z,34.55
2022-08-22T17:19:40.242Z,36.08
2022-08-22T17:22:19.363Z,38.51
2022-08-22T17:24:51.629Z,38.59
2022-08-22T17:27:27.376Z,35.92
2022-08-22T17:30:13.447Z,35.44
2022-08-22T17:33:06.328Z,34.83
2022-08-22T17:35:51.317Z,36.70
2022-08-22T17:38:42.449Z,36.58
2022-08-22T17:41:43.893Z,35.61
2022-08-22T17:44:29.551Z,36.11
2022-08-22T17:47:16.029Z,35.04
2022-08-22T17:49:42.504Z,37.24
2022-08-22T17:52:49.339Z,36.27
2022-08-22T17:55:20.145Z,36.96
2022-08-22T17:57:57.237Z,39.28
2022-08-22T18:00:24.180Z,36.30
2022-08-22T18:02:55.085Z,37.75
2022-08-22T18:05:25.084Z,37.98
2022-08-22T18:08:04.545Z,37.14
2022-08-22T18:10:50.443Z,36.44
2022-08-22T18:13:38.836Z,37.48
2022-08-22T18:16:29.516Z,37.57
2022-08-22T18:19:04.956Z,37.28
2022-08-22T18:21:37.293Z,39.15
2022-08-22T18:24:09.885Z,37.38
2022-08-22T18:26:42.061Z,38.92
2022-08-22T18:29:13.154Z,45.05
2022-08-22T18:32:14.096Z,44.94
2022-08-22T18:34:54.828Z,44.12
2022-08-22T18:37:32.778Z,47.52
2022-08-22T18:40:12.756Z,45.49
2022-08-22T18:42:48.165Z,48.26
2022-08-22T18:45:16.957Z,44.99
2022-08-22T18:47:54.228Z,47.60
2022-08-22T18:50:31.215Z,45.16
2022-08-22T18:52:59.325Z,47.90
2022-08-22T18:55:51.459Z,48.19
2022-08-22T18:58:33.415Z,47.47
2022-08-22T19:01:16.146Z,48.77
2022-08-22T19:04:21.067Z,50.91
2022-08-22T19:07:24.451Z,51.13
2022-08-22T19:10:15.836Z,50.44
2022-08-22T19:12:58.370Z,52.34
2022-08-22T19:16:02.546Z,50.98
2022-08-22T19:18:51.444Z,51.24
2022-08-22T19:21:51.296Z,51.87
2022-08-22T19:24:17.736Z,51.77
2022-08-22T19:26:48.857Z,51.93
2022-08-22T19:29:15.988Z,52.17
2022-08-22T19:31:52.347Z,51.73
2022-08-22T19:34:51.463Z,53.39
2022-08-22T19:37:32.947Z,51.64
2022-08-22T19:40:09.671Z,51.35
2022-08-22T19:42:39.467Z,51.09
2022-08-22T19:45:26.472Z,52.87
2022-08-22T19:47:57.530Z,52.49
2022-08-22T19:50:30.920Z,52.00
2022-08-22T19:53:04.203Z,54.23
2022-08-22T19:55:39.522Z,53.63
2022-08-22T19:58:13.289Z,54.41
2022-08-22T20:00:54.972Z,53.30
2022-08-22T20:03:59.360Z,52.59
2022-08-22T20:06:43.986Z,54.33
2022-08-22T20:09:28.718Z,54.44
2022-08-22T20:12:22.927Z,53.87
2022-08-22T20:14:50.010Z,54.27
2022-08-22T20:17:25.663Z,54.11
2022-08-22T20:22:49.090Z,55.55
2022-08-22T20:25:43.005Z,54.01
2022-08-22T20:28:33.252Z,53.53
2022-08-22T20:31:03.342Z,53.69
2022-08-22T20:33:35.137Z,54.52
2022-08-22T20:36:06.279Z,53.69
2022-08-22T20:38:56.018Z,54.32
2022-08-22T20:41:43.764Z,53.07
2022-08-22T20:44:16.081Z,53.08
2022-08-22T20:46:54.925Z,53.96
2022-08-22T20:49:28.717Z,54.43
2022-08-22T20:52:06.964Z,53.80
2022-08-22T20:54:38.008Z,53.71
2022-08-22T20:57:16.059Z,53.88
2022-08-22T20:59:55.234Z,53.80
2022-08-22T21:02:27.924Z,54.21
2022-08-22T21:05:05.240Z,54.46
2022-08-22T21:07:34.959Z,54.27
2022-08-22T21:10:34.662Z,54.79
2022-08-22T21:13:07.906Z,54.35
2022-08-22T21:15:41.391Z,53.91
2022-08-22T21:18:11.115Z,54.60
2022-08-22T21:20:39.015Z,54.45
2022-08-22T21:23:12.369Z,54.03
2022-08-22T21:25:58.145Z,53.92
2022-08-22T21:28:53.545Z,54.85
2022-08-22T21:31:22.596Z,53.59
2022-08-22T21:33:51.898Z,52.82
2022-08-22T21:36:22.214Z,53.03
2022-08-22T21:39:03.719Z,53.86
2022-08-22T21:42:02.723Z,53.90
2022-08-22T21:44:35.780Z,53.10
2022-08-22T21:47:30.502Z,53.34
2022-08-22T21:50:15.506Z,53.09
2022-08-22T21:52:44.799Z,52.62
2022-08-22T21:55:29.660Z,53.04
2022-08-22T21:58:03.926Z,53.76
2022-08-22T22:00:49.677Z,53.50
2022-08-22T22:03:21.969Z,52.75
2022-08-22T22:05:50.560Z,52.95
2022-08-22T22:08:17.779Z,52.64
2022-08-22T22:10:46.199Z,52.89
2022-08-22T22:13:13.121Z,52.37
2022-08-22T22:15:44.211Z,52.06
2022-08-22T22:18:12.993Z,52.30
2022-08-22T22:20:40.524Z,52.54
2022-08-22T22:23:07.062Z,52.74
2022-08-22T22:25:40.734Z,53.32
2022-08-22T22:28:30.228Z,51.93
2022-08-22T22:30:56.965Z,52.57
2022-08-22T22:33:27.310Z,52.86
2022-08-22T22:35:55.115Z,53.50
2022-08-22T22:38:24.289Z,53.60
2022-08-22T22:40:51.749Z,53.94
2022-08-22T22:43:18.907Z,54.19
2022-08-22T22:45:45.447Z,54.91
2022-08-22T22:48:15.758Z,54.59
2022-08-22T22:50:50.582Z,55.48
2022-08-22T22:53:19.818Z,54.63
2022-08-22T22:56:00.244Z,55.26
2022-08-22T22:58:28.076Z,54.38
2022-08-22T23:00:54.900Z,54.83
2022-08-22T23:03:21.570Z,54.28
2022-08-22T23:05:48.182Z,55.08
2022-08-22T23:08:15.226Z,54.16
2022-08-22T23:10:41.831Z,54.73
2022-08-22T23:13:08.411Z,55.31
2022-08-22T23:15:36.661Z,54.44
2022-08-22T23:18:03.307Z,56.53
2022-08-22T23:20:29.853Z,55.77
2022-08-22T23:22:56.515Z,54.80
2022-08-22T23:25:23.121Z,53.92
2022-08-22T23:27:52.520Z,55.76
2022-08-22T23:30:20.265Z,55.70
2022-08-22T23:32:46.856Z,55.44
2022-08-22T23:35:13.515Z,56.61
2022-08-22T23:37:40.468Z,55.58
2022-08-22T23:40:09.157Z,56.21
2022-08-22T23:42:35.971Z,56.17
2022-08-22T23:45:02.801Z,56.47
2022-08-22T23:47:29.417Z,56.26
2022-08-22T23:49:56.001Z,57.29
2022-08-22T23:52:22.632Z,55.79
2022-08-22T23:54:51.564Z,55.57
2022-08-22T23:57:26.280Z,56.94
2022-08-22T23:59:57.350Z,57.53
